createdAt,value
2022-09-23T00:02:03.720Z,100965.66
2022-09-23T00:05:05.747Z,100963.66
2022-09-23T00:08:27.649Z,100960.97
2022-09-23T00:11:42.607Z,100939.00
2022-09-23T00:14:50.734Z,100956.38
2022-09-23T00:17:59.328Z,100953.69
2022-09-23T00:21:12.647Z,100959.91
2022-09-23T00:24:21.167Z,100938.75
2022-09-23T00:27:35.652Z,100935.09
2022-09-23T00:30:47.710Z,100949.22
2022-09-23T00:33:59.339Z,100946.69
2022-09-23T00:37:34.628Z,100893.31
2022-09-23T00:40:36.361Z,100921.31
2022-09-23T00:43:53.627Z,100945.06
2022-09-23T00:47:02.973Z,100948.69
2022-09-23T00:50:34.700Z,100945.13
2022-09-23T00:53:45.364Z,100931.19
2022-09-23T00:57:17.923Z,100939.13
2022-09-23T01:00:39.575Z,100940.06
2022-09-23T01:03:55.606Z,100942.84
2022-09-23T01:07:30.872Z,100909.53
2022-09-23T01:11:09.647Z,100846.50
2022-09-23T01:14:52.507Z,100943.91
2022-09-23T01:18:46.611Z,100947.44
2022-09-23T01:22:09.650Z,100954.59
2022-09-23T01:25:47.292Z,100955.44
2022-09-23T01:29:28.615Z,100950.22
2022-09-23T01:32:47.440Z,100945.81
2022-09-23T01:36:21.678Z,100932.69
2022-09-23T01:39:48.660Z,100947.59
2022-09-23T01:43:06.064Z,100948.44
2022-09-23T01:46:30.831Z,100945.84
2022-09-23T01:49:51.676Z,100928.28
2022-09-23T01:53:05.857Z,100934.38
2022-09-23T01:56:28.629Z,100915.03
2022-09-23T02:00:05.651Z,100930.03
2022-09-23T02:03:43.852Z,100936.16
2022-09-23T02:07:28.723Z,100930.03
2022-09-23T02:11:07.894Z,100934.38
2022-09-23T02:14:48.840Z,100923.19
2022-09-23T02:18:31.694Z,100930.94
2022-09-23T02:21:46.388Z,100937.09
2022-09-23T02:24:55.692Z,100936.22
2022-09-23T02:28:22.648Z,100906.38
2022-09-23T02:31:38.510Z,100927.66
2022-09-23T02:35:20.640Z,100931.22
2022-09-23T02:38:45.638Z,100934.94
2022-09-23T02:41:58.975Z,100914.75
2022-09-23T02:45:13.669Z,100938.66
2022-09-23T02:48:35.639Z,100929.94
2022-09-23T02:51:39.261Z,100925.59
2022-09-23T02:54:54.928Z,100886.12
2022-09-23T02:58:29.699Z,100935.44
2022-09-23T03:01:59.581Z,100933.72
2022-09-23T03:05:27.984Z,100911.81
2022-09-23T03:09:09.646Z,100944.41
2022-09-23T03:12:27.356Z,100932.88
2022-09-23T03:16:20.785Z,100920.63
2022-09-23T03:20:05.306Z,100928.59
2022-09-23T03:23:10.619Z,100927.53
2022-09-23T03:26:35.655Z,100931.81
2022-09-23T03:29:43.767Z,100921.22
2022-09-23T03:32:54.693Z,100928.19
2022-09-23T03:36:14.658Z,100921.09
2022-09-23T03:39:34.641Z,100929.94
2022-09-23T03:42:49.715Z,100940.47
2022-09-23T03:45:58.936Z,100936.03
2022-09-23T03:49:21.726Z,100925.47
2022-09-23T03:52:36.664Z,100927.25
2022-09-23T03:55:45.148Z,100919.41
2022-09-23T03:58:53.667Z,100923.97
2022-09-23T04:02:02.347Z,100926.78
2022-09-23T04:05:11.659Z,100937.22
2022-09-23T04:08:26.887Z,100939.78
2022-09-23T04:11:41.715Z,100924.87
2022-09-23T04:14:44.147Z,100941.50
2022-09-23T04:17:58.669Z,100936.25
2022-09-23T04:21:13.915Z,100940.66
2022-09-23T04:24:16.579Z,100944.16
2022-09-23T04:27:37.567Z,100923.12
2022-09-23T04:30:40.599Z,100940.59
2022-09-23T04:33:57.667Z,100944.12
2022-09-23T04:37:06.078Z,100938.16
2022-09-23T04:40:14.686Z,100953.22
2022-09-23T04:43:29.673Z,100950.62
2022-09-23T04:46:44.704Z,100945.44
2022-09-23T04:49:55.527Z,100948.09
2022-09-23T04:53:06.323Z,100958.66
2022-09-23T04:56:24.752Z,100956.88
2022-09-23T04:59:26.415Z,100951.53
2022-09-23T05:02:40.668Z,100961.22
2022-09-23T05:05:48.651Z,100954.16
2022-09-23T05:09:07.152Z,100963.75
2022-09-23T05:12:21.675Z,100966.13
2022-09-23T05:15:29.684Z,100966.94
2022-09-23T05:18:40.859Z,100969.47
2022-09-23T05:21:55.692Z,100968.59
2022-09-23T05:24:57.376Z,100965.94
2022-09-23T05:28:11.727Z,100969.25
2022-09-23T05:31:22.732Z,100980.56
2022-09-23T05:34:37.740Z,100969.66
2022-09-23T05:37:53.947Z,100980.06
2022-09-23T05:41:00.773Z,100973.13
2022-09-23T05:44:16.732Z,100984.47
2022-09-23T05:47:31.695Z,100962.53
2022-09-23T05:50:33.807Z,100979.41
2022-09-23T05:53:49.732Z,100971.91
2022-09-23T05:57:18.131Z,100980.56
2022-09-23T06:00:27.787Z,100968.56
2022-09-23T06:03:36.358Z,100978.00
2022-09-23T06:06:47.847Z,100975.66
2022-09-23T06:13:35.733Z,100962.56
2022-09-23T06:16:38.317Z,100973.44
2022-09-23T06:19:53.006Z,100969.37
2022-09-23T06:23:07.367Z,100939.66
2022-09-23T06:26:19.712Z,100978.59
2022-09-23T06:29:34.742Z,100926.34
2022-09-23T06:32:48.593Z,100978.03
2022-09-23T06:36:09.737Z,100974.00
2022-09-23T06:44:16.775Z,100986.47
2022-09-23T06:47:56.672Z,100988.63
2022-09-23T06:51:12.820Z,100986.72
2022-09-23T06:54:52.606Z,100998.06
2022-09-23T06:58:15.139Z,101006.87
2022-09-23T07:01:39.382Z,101002.50
2022-09-23T07:12:57.892Z,100991.09
2022-09-23T07:16:32.843Z,100997.16
2022-09-23T07:19:41.735Z,100999.16
2022-09-23T07:30:58.874Z,100800.94
2022-09-23T07:42:47.803Z,101021.72
2022-09-23T07:45:59.614Z,101010.41
2022-09-23T07:56:19.875Z,101004.19
2022-09-23T08:00:02.458Z,101018.66
2022-09-23T08:03:09.501Z,100916.94
2022-09-23T08:06:42.197Z,101007.09
2022-09-23T08:09:50.357Z,100888.97
2022-09-23T08:12:59.076Z,101001.34
2022-09-23T08:16:07.649Z,101008.47
2022-09-23T08:24:40.111Z,100999.94
2022-09-23T08:28:32.586Z,100986.03
2022-09-23T08:31:53.892Z,101012.84
2022-09-23T08:34:55.688Z,100988.44
2022-09-23T08:42:17.196Z,100979.34
2022-09-23T08:45:33.783Z,100966.56
2022-09-23T08:49:23.798Z,100881.09
2022-09-23T08:52:46.795Z,100991.66
2022-09-23T08:55:51.193Z,100988.78
2022-09-23T08:59:48.113Z,100977.62
2022-09-23T09:03:28.512Z,100803.47
2022-09-23T09:06:53.665Z,100816.97
2022-09-23T09:10:31.462Z,100824.38
2022-09-23T09:14:46.188Z,100884.06
2022-09-23T09:21:59.670Z,100996.69
2022-09-23T09:45:33.597Z,100860.78
2022-09-23T09:49:18.904Z,100975.06
2022-09-23T09:52:48.992Z,100963.09
2022-09-23T10:00:49.049Z,100951.84
2022-09-23T10:05:02.005Z,100935.09
2022-09-23T10:08:59.639Z,100925.59
2022-09-23T10:13:27.698Z,100933.34
2022-09-23T10:25:00.084Z,100937.78
2022-09-23T10:28:46.053Z,100933.91
2022-09-23T10:40:21.838Z,100846.00
2022-09-23T10:44:10.738Z,100906.03
2022-09-23T10:55:14.409Z,100915.50
2022-09-23T11:03:25.243Z,100919.66
2022-09-23T11:07:16.200Z,100913.47
2022-09-23T11:11:16.083Z,100910.88
2022-09-23T11:14:35.003Z,100901.19
2022-09-23T11:18:32.139Z,100887.69
2022-09-23T11:22:27.424Z,100898.13
2022-09-23T11:26:02.839Z,100895.25
2022-09-23T11:29:48.759Z,100884.56
2022-09-23T11:33:21.921Z,100805.75
2022-09-23T11:36:59.016Z,100876.16
2022-09-23T11:49:15.888Z,100814.19
2022-09-23T11:56:35.446Z,100865.50
2022-09-23T11:59:56.847Z,100864.25
2022-09-23T12:07:00.870Z,100864.34
2022-09-23T12:11:03.790Z,100857.63
2022-09-23T12:14:39.449Z,100856.09
2022-09-23T12:36:40.154Z,100838.81
2022-09-23T12:43:36.908Z,100818.69
2022-09-23T12:46:52.849Z,100757.16
2022-09-23T12:54:39.700Z,100750.22
2022-09-23T12:57:54.828Z,100814.62
2022-09-23T13:01:07.723Z,100800.63
2022-09-23T13:04:38.807Z,100808.34
2022-09-23T13:07:51.859Z,100795.19
2022-09-23T13:11:02.616Z,100738.47
2022-09-23T13:14:27.560Z,100796.87
2022-09-23T13:17:34.136Z,100792.16
2022-09-23T13:20:48.878Z,100779.66
2022-09-23T13:24:19.745Z,100783.41
2022-09-23T13:28:34.331Z,100781.88
2022-09-23T13:36:30.728Z,100744.72
2022-09-23T13:40:29.380Z,100777.75
2022-09-23T13:55:11.872Z,100769.69
2022-09-23T13:59:14.335Z,100770.88
2022-09-23T14:02:28.892Z,100720.78
2022-09-23T14:05:44.904Z,100770.38
2022-09-23T14:21:06.992Z,100759.50
2022-09-23T14:37:58.853Z,100743.94
2022-09-23T14:41:22.859Z,100709.38
2022-09-23T14:44:32.088Z,100726.22
2022-09-23T14:47:51.940Z,100740.91
2022-09-23T14:51:04.862Z,100739.94
2022-09-23T14:54:32.478Z,100739.22
2022-09-23T14:57:40.958Z,100738.56
2022-09-23T15:00:59.448Z,100728.69
2022-09-23T15:04:19.906Z,100730.00
2022-09-23T15:07:28.772Z,100733.06
2022-09-23T15:10:46.983Z,100732.06
2022-09-23T15:14:09.467Z,100733.94
2022-09-23T15:17:34.762Z,100712.06
2022-09-23T15:20:57.112Z,100700.41
2022-09-23T15:23:58.738Z,100730.66
2022-09-23T15:27:29.288Z,100728.94
2022-09-23T15:30:31.548Z,100684.37
2022-09-23T15:33:45.879Z,100720.59
2022-09-23T15:37:01.701Z,100714.28
2022-09-23T15:40:09.972Z,100715.84
2022-09-23T15:43:22.130Z,100705.34
2022-09-23T15:46:37.312Z,100708.47
2022-09-23T15:50:03.021Z,100696.41
2022-09-23T15:53:16.983Z,100713.62
2022-09-23T15:56:25.946Z,100719.25
2022-09-23T15:59:40.935Z,100711.28
2022-09-23T16:02:56.868Z,100712.66
2022-09-23T16:06:00.797Z,100686.41
2022-09-23T16:09:16.157Z,100690.09
2022-09-23T16:12:23.907Z,100707.28
2022-09-23T16:15:32.940Z,100719.34
2022-09-23T16:18:40.948Z,100689.88
2022-09-23T16:21:55.957Z,100695.75
2022-09-23T16:25:05.356Z,100720.12
2022-09-23T16:28:13.929Z,100722.00
2022-09-23T16:31:23.600Z,100723.06
2022-09-23T16:34:31.917Z,100694.16
2022-09-23T16:37:40.733Z,100716.22
2022-09-23T16:40:55.017Z,100712.94
2022-09-23T16:44:10.998Z,100702.69
2022-09-23T16:47:15.941Z,100722.22
2022-09-23T16:50:30.911Z,100696.28
2022-09-23T16:53:39.954Z,100720.69
2022-09-23T16:56:55.000Z,100725.47
2022-09-23T17:00:06.581Z,100724.00
2022-09-23T17:03:17.973Z,100723.12
2022-09-23T17:06:32.912Z,100723.53
2022-09-23T17:09:40.927Z,100695.09
2022-09-23T17:12:49.374Z,100707.91
2022-09-23T17:16:05.043Z,100713.66
2022-09-23T17:19:15.148Z,100715.41
2022-09-23T17:22:30.812Z,100718.37
2022-09-23T17:25:45.952Z,100714.41
2022-09-23T17:28:48.023Z,100719.81
2022-09-23T17:32:02.946Z,100721.56
2022-09-23T17:35:04.880Z,100727.09
2022-09-23T17:38:29.309Z,100720.59
2022-09-23T17:41:43.895Z,100706.34
2022-09-23T17:44:45.549Z,100707.63
2022-09-23T17:47:59.957Z,100716.62
2022-09-23T17:51:14.914Z,100688.16
2022-09-23T17:54:22.913Z,100735.97
2022-09-23T17:57:31.572Z,100742.63
2022-09-23T18:00:40.023Z,100740.16
2022-09-23T18:03:54.271Z,100738.66
2022-09-23T18:07:08.926Z,100717.34
2022-09-23T18:10:10.524Z,100731.00
2022-09-23T18:13:25.174Z,100737.03
2022-09-23T18:16:43.139Z,100742.91
2022-09-23T18:19:44.831Z,100745.37
2022-09-23T18:23:08.963Z,100734.12
2022-09-23T18:26:20.471Z,100746.94
2022-09-23T18:29:29.245Z,100757.72
2022-09-23T18:32:44.184Z,100745.78
2022-09-23T18:35:45.834Z,100711.97
2022-09-23T18:39:07.980Z,100749.81
2022-09-23T18:42:23.042Z,100751.91
2022-09-23T18:45:30.961Z,100726.09
2022-09-23T18:48:39.911Z,100752.69
2022-09-23T18:51:59.945Z,100750.94
2022-09-23T18:55:01.662Z,100733.09
2022-09-23T18:58:15.961Z,100744.09
2022-09-23T19:01:21.722Z,100766.59
2022-09-23T19:04:35.943Z,100764.16
2022-09-23T19:07:44.926Z,100760.69
2022-09-23T19:11:01.937Z,100755.06
2022-09-23T19:14:18.057Z,100760.69
2022-09-23T19:17:32.968Z,100762.75
2022-09-23T19:20:40.951Z,100757.06
2022-09-23T19:23:53.823Z,100759.53
2022-09-23T19:27:02.058Z,100769.63
2022-09-23T19:30:11.106Z,100766.19
2022-09-23T19:33:25.973Z,100764.59
2022-09-23T19:36:30.736Z,100762.97
2022-09-23T19:40:12.135Z,100759.78
2022-09-23T19:43:55.761Z,100759.19
2022-09-23T19:47:06.247Z,100747.75
2022-09-23T19:50:21.068Z,100748.13
2022-09-23T19:53:35.952Z,100747.16
2022-09-23T19:56:37.584Z,100752.78
2022-09-23T19:59:51.959Z,100766.03
2022-09-23T20:03:00.515Z,100768.94
2022-09-23T20:06:10.723Z,100765.66
2022-09-23T20:09:31.979Z,100725.47
2022-09-23T20:12:39.983Z,100758.84
2022-09-23T20:15:48.783Z,100755.37
2022-09-23T20:19:04.031Z,100760.81
2022-09-23T20:22:05.756Z,100758.41
2022-09-23T20:25:19.980Z,100761.16
2022-09-23T20:28:28.529Z,100755.09
2022-09-23T20:31:37.041Z,100733.22
2022-09-23T20:34:53.108Z,100755.37
2022-09-23T20:37:54.752Z,100755.66
2022-09-23T20:41:09.020Z,100761.84
2022-09-23T20:44:17.799Z,100758.41
2022-09-23T20:47:25.999Z,100739.34
2022-09-23T20:50:34.520Z,100755.25
2022-09-23T20:53:48.967Z,100759.84
2022-09-23T20:56:56.974Z,100760.00
2022-09-23T21:00:05.778Z,100753.00
2022-09-23T21:03:14.967Z,100763.72
2022-09-23T21:06:23.955Z,100757.66
2022-09-23T21:09:38.979Z,100760.38
2022-09-23T21:12:40.505Z,100756.91
2022-09-23T21:15:55.055Z,100745.66
2022-09-23T21:19:04.771Z,100758.87
2022-09-23T21:22:13.023Z,100762.59
2022-09-23T21:25:30.131Z,100763.47
2022-09-23T21:28:41.971Z,100766.13
2022-09-23T21:31:57.046Z,100765.38
2022-09-23T21:35:11.988Z,100743.47
2022-09-23T21:38:22.015Z,100737.47
2022-09-23T21:41:36.991Z,100766.59
2022-09-23T21:44:45.488Z,100768.41
2022-09-23T21:47:53.967Z,100733.56
2022-09-23T21:51:05.480Z,100773.06
2022-09-23T21:54:18.976Z,100766.06
2022-09-23T21:57:30.472Z,100774.94
2022-09-23T22:00:46.060Z,100763.56
2022-09-23T22:03:52.098Z,100770.59
2022-09-23T22:07:07.077Z,100778.59
2022-09-23T22:10:15.695Z,100779.56
2022-09-23T22:13:23.979Z,100778.75
2022-09-23T22:16:34.552Z,100775.25
2022-09-23T22:19:59.297Z,100770.91
2022-09-23T22:23:15.855Z,100752.59
2022-09-23T22:26:32.462Z,100768.41
2022-09-23T22:29:58.697Z,100772.00
2022-09-23T22:33:29.903Z,100781.75
2022-09-23T22:37:06.118Z,100771.16
2022-09-23T22:41:01.966Z,100769.44
2022-09-23T22:44:12.890Z,100776.66
2022-09-23T22:47:44.090Z,100774.03
2022-09-23T22:50:50.745Z,100770.53
2022-09-23T22:54:08.320Z,100772.28
2022-09-23T22:57:17.453Z,100779.37
2022-09-23T23:00:26.379Z,100780.31
2022-09-23T23:03:34.880Z,100772.41
2022-09-23T23:06:50.046Z,100752.19
2022-09-23T23:09:52.555Z,100534.16
2022-09-23T23:13:07.002Z,100761.00
2022-09-23T23:16:10.976Z,100751.47
2022-09-23T23:19:26.126Z,100767.28
2022-09-23T23:22:41.012Z,100765.53
2022-09-23T23:25:42.643Z,100755.97
2022-09-23T23:28:59.046Z,100759.53
2022-09-23T23:32:07.453Z,100770.84
2022-09-23T23:35:16.115Z,100752.47
2022-09-23T23:38:31.564Z,100755.16
2022-09-23T23:42:03.055Z,100767.47
2022-09-23T23:45:31.354Z,100742.16
2022-09-23T23:48:47.092Z,100770.34
2022-09-23T23:51:55.988Z,100759.75
2022-09-23T23:55:05.071Z,100758.94
2022-09-23T23:58:21.008Z,100741.41
